createdAt,value
2023-05-14T00:01:36.528Z,98.87
2023-05-14T00:04:04.753Z,98.93
2023-05-14T00:06:32.841Z,98.90
2023-05-14T00:09:00.596Z,98.76
2023-05-14T00:11:28.592Z,98.64
2023-05-14T00:13:56.538Z,98.70
2023-05-14T00:16:24.289Z,98.51
2023-05-14T00:18:52.090Z,98.34
2023-05-14T00:21:20.664Z,98.20
2023-05-14T00:23:48.517Z,97.88
2023-05-14T00:26:16.387Z,97.65
2023-05-14T00:28:45.386Z,97.61
2023-05-14T00:31:14.242Z,97.56
2023-05-14T00:33:42.198Z,97.42
2023-05-14T00:36:10.074Z,97.46
2023-05-14T00:38:37.937Z,97.27
2023-05-14T00:41:05.977Z,97.20
2023-05-14T00:43:33.928Z,97.23
2023-05-14T00:46:02.212Z,97.29
2023-05-14T00:48:30.892Z,97.33
2023-05-14T00:50:59.368Z,97.16
2023-05-14T00:53:28.030Z,97.10
2023-05-14T00:55:56.097Z,96.92
2023-05-14T00:58:25.014Z,96.79
2023-05-14T01:00:52.982Z,96.82
2023-05-14T01:03:21.070Z,96.72
2023-05-14T01:05:52.483Z,96.80
2023-05-14T01:08:31.957Z,97.03
2023-05-14T01:11:24.992Z,97.02
2023-05-14T01:13:58.830Z,96.79
2023-05-14T01:16:29.074Z,96.80
2023-05-14T01:18:58.915Z,96.79
2023-05-14T01:21:37.889Z,96.62
2023-05-14T01:24:06.478Z,96.79
2023-05-14T01:26:36.379Z,96.69
2023-05-14T01:29:21.627Z,96.79
2023-05-14T01:31:51.464Z,97.27
2023-05-14T01:34:22.718Z,97.32
2023-05-14T01:36:52.232Z,97.33
2023-05-14T01:39:20.589Z,97.23
2023-05-14T01:41:49.058Z,97.07
2023-05-14T01:44:17.563Z,97.40
2023-05-14T01:46:45.382Z,97.41
2023-05-14T01:49:14.031Z,97.17
2023-05-14T01:51:41.917Z,97.23
2023-05-14T01:54:09.721Z,97.21
2023-05-14T01:56:37.959Z,97.24
2023-05-14T01:59:05.882Z,97.17
2023-05-14T02:01:34.115Z,97.12
2023-05-14T02:04:02.320Z,97.37
2023-05-14T02:06:30.195Z,98.20
2023-05-14T02:08:58.265Z,97.89
2023-05-14T02:11:26.295Z,97.58
2023-05-14T02:13:54.198Z,97.76
2023-05-14T02:16:22.243Z,97.76
2023-05-14T02:18:52.936Z,97.45
2023-05-14T02:21:20.863Z,97.40
2023-05-14T02:23:49.692Z,97.50
2023-05-14T02:26:17.703Z,97.51
2023-05-14T02:28:46.158Z,97.42
2023-05-14T02:31:14.664Z,97.11
2023-05-14T02:33:43.189Z,97.18
2023-05-14T02:36:11.148Z,97.14
2023-05-14T02:38:39.224Z,97.13
2023-05-14T02:41:07.138Z,96.92
2023-05-14T02:43:34.941Z,96.97
2023-05-14T02:46:03.004Z,97.13
2023-05-14T02:48:30.965Z,97.01
2023-05-14T02:50:58.904Z,96.88
2023-05-14T02:53:26.796Z,96.85
2023-05-14T02:55:54.774Z,96.77
2023-05-14T02:58:25.072Z,96.83
2023-05-14T03:00:56.297Z,96.82
2023-05-14T03:03:24.932Z,96.77
2023-05-14T03:05:53.898Z,97.01
2023-05-14T03:08:21.713Z,97.01
2023-05-14T03:10:49.740Z,96.88
2023-05-14T03:13:20.037Z,96.96
2023-05-14T03:15:48.681Z,96.74
2023-05-14T03:18:16.949Z,96.65
2023-05-14T03:20:45.372Z,96.56
2023-05-14T03:23:14.925Z,96.55
2023-05-14T03:25:42.841Z,96.74
2023-05-14T03:28:10.748Z,96.76
2023-05-14T03:30:38.656Z,96.58
2023-05-14T03:33:07.084Z,96.75
2023-05-14T03:35:35.098Z,96.60
2023-05-14T03:38:03.006Z,96.65
2023-05-14T03:40:30.886Z,96.71
2023-05-14T03:42:58.860Z,96.69
2023-05-14T03:45:28.704Z,96.80
2023-05-14T03:47:56.958Z,96.85
2023-05-14T03:50:25.801Z,96.90
2023-05-14T03:52:55.251Z,96.78
2023-05-14T03:55:24.059Z,96.71
2023-05-14T03:57:51.901Z,96.64
2023-05-14T04:00:20.025Z,96.55
2023-05-14T04:02:48.071Z,96.43
2023-05-14T04:05:16.745Z,96.42
2023-05-14T04:07:45.930Z,96.27
2023-05-14T04:10:14.210Z,96.05
2023-05-14T04:12:42.137Z,96.01
2023-05-14T04:15:11.148Z,95.80
2023-05-14T04:17:39.037Z,95.82
2023-05-14T04:20:08.027Z,95.70
2023-05-14T04:22:36.287Z,95.82
2023-05-14T04:25:04.676Z,95.56
2023-05-14T04:27:33.573Z,95.48
2023-05-14T04:30:01.321Z,95.52
2023-05-14T04:32:30.325Z,95.71
2023-05-14T04:34:58.822Z,95.68
2023-05-14T04:37:26.992Z,95.61
2023-05-14T04:39:54.985Z,95.36
2023-05-14T04:42:22.967Z,95.31
2023-05-14T04:44:51.992Z,95.36
2023-05-14T04:47:21.298Z,95.42
2023-05-14T04:49:49.130Z,95.42
2023-05-14T04:52:16.880Z,95.30
2023-05-14T04:54:44.846Z,95.03
2023-05-14T04:57:12.767Z,94.72
2023-05-14T04:59:40.804Z,94.34
2023-05-14T05:02:10.602Z,94.23
2023-05-14T05:04:39.106Z,93.85
2023-05-14T05:07:07.019Z,93.66
2023-05-14T05:09:34.983Z,93.56
2023-05-14T05:12:02.994Z,93.20
2023-05-14T05:14:37.267Z,92.90
2023-05-14T05:17:06.383Z,92.94
2023-05-14T05:19:43.682Z,92.68
2023-05-14T05:22:20.051Z,92.42
2023-05-14T05:24:49.761Z,92.03
2023-05-14T05:27:18.079Z,91.45
2023-05-14T05:29:46.315Z,90.95
2023-05-14T05:32:14.232Z,90.94
2023-05-14T05:34:42.298Z,90.88
2023-05-14T05:37:13.172Z,90.74
2023-05-14T05:39:42.519Z,90.41
2023-05-14T05:42:10.480Z,90.14
2023-05-14T05:44:38.295Z,89.44
2023-05-14T05:47:12.070Z,89.36
2023-05-14T05:49:40.148Z,89.04
2023-05-14T05:52:08.069Z,89.31
2023-05-14T05:54:36.040Z,89.23
2023-05-14T05:57:04.224Z,88.80
2023-05-14T05:59:32.080Z,88.52
2023-05-14T06:02:00.192Z,88.41
2023-05-14T06:04:28.244Z,88.53
2023-05-14T06:06:56.132Z,88.19
2023-05-14T06:09:24.001Z,88.53
2023-05-14T06:11:51.941Z,88.20
2023-05-14T06:14:19.730Z,88.37
2023-05-14T06:16:47.748Z,88.22
2023-05-14T06:19:16.005Z,88.00
2023-05-14T06:21:44.436Z,87.88
2023-05-14T06:24:13.423Z,87.45
2023-05-14T06:26:41.308Z,86.86
2023-05-14T06:29:09.186Z,86.63
2023-05-14T06:31:37.815Z,85.38
2023-05-14T06:34:05.778Z,84.39
2023-05-14T06:36:33.775Z,84.20
2023-05-14T06:39:01.673Z,83.32
2023-05-14T06:41:29.734Z,82.23
2023-05-14T06:43:57.698Z,82.48
2023-05-14T06:46:25.675Z,81.28
2023-05-14T06:48:53.611Z,81.28
2023-05-14T06:51:21.800Z,81.30
2023-05-14T06:53:49.667Z,81.57
2023-05-14T06:56:17.699Z,80.00
2023-05-14T06:58:45.745Z,78.64
2023-05-14T07:01:13.841Z,79.33
2023-05-14T07:03:41.655Z,79.09
2023-05-14T07:06:10.855Z,78.82
2023-05-14T07:08:40.859Z,79.12
2023-05-14T07:11:08.744Z,78.24
2023-05-14T07:13:36.650Z,77.40
2023-05-14T07:16:04.829Z,75.81
2023-05-14T07:18:32.867Z,75.87
2023-05-14T07:21:00.875Z,76.08
2023-05-14T07:23:28.609Z,75.04
2023-05-14T07:25:56.578Z,74.70
2023-05-14T07:28:24.426Z,75.35
2023-05-14T07:30:52.278Z,75.45
2023-05-14T07:33:20.188Z,75.68
2023-05-14T07:35:48.141Z,75.32
2023-05-14T07:38:16.936Z,73.73
2023-05-14T07:40:45.113Z,73.70
2023-05-14T07:43:13.280Z,74.25
2023-05-14T07:45:41.313Z,72.41
2023-05-14T07:48:09.546Z,71.97
2023-05-14T07:50:38.321Z,71.94
2023-05-14T07:53:06.365Z,71.46
2023-05-14T07:55:34.337Z,71.79
2023-05-14T07:58:02.133Z,71.83
2023-05-14T08:00:29.968Z,70.36
2023-05-14T08:02:58.097Z,70.97
2023-05-14T08:05:26.770Z,71.37
2023-05-14T08:07:54.682Z,71.17
2023-05-14T08:10:22.974Z,70.61
2023-05-14T08:12:51.266Z,70.38
2023-05-14T08:15:19.213Z,69.41
2023-05-14T08:17:47.155Z,67.89
2023-05-14T08:20:15.203Z,66.43
2023-05-14T08:22:43.086Z,64.10
2023-05-14T08:25:11.712Z,64.11
2023-05-14T08:27:39.977Z,64.61
2023-05-14T08:30:08.221Z,63.56
2023-05-14T08:32:38.366Z,64.60
2023-05-14T08:35:07.038Z,65.36
2023-05-14T08:37:34.957Z,64.26
2023-05-14T08:40:03.171Z,63.69
2023-05-14T08:42:31.794Z,64.21
2023-05-14T08:45:05.829Z,63.42
2023-05-14T08:47:34.457Z,63.73
2023-05-14T08:50:04.905Z,62.99
2023-05-14T08:52:34.376Z,62.03
2023-05-14T08:55:06.451Z,61.71
2023-05-14T08:57:35.434Z,62.86
2023-05-14T09:00:18.208Z,62.53
2023-05-14T09:02:49.326Z,63.45
2023-05-14T09:05:18.971Z,62.41
2023-05-14T09:07:46.874Z,62.19
2023-05-14T09:10:16.438Z,61.25
2023-05-14T09:12:44.392Z,61.00
2023-05-14T09:15:13.268Z,59.62
2023-05-14T09:17:41.448Z,58.87
2023-05-14T09:20:12.575Z,57.43
2023-05-14T09:22:41.084Z,56.62
2023-05-14T09:25:12.110Z,55.91
2023-05-14T09:27:40.131Z,56.96
2023-05-14T09:30:12.914Z,55.48
2023-05-14T09:32:50.637Z,55.33
2023-05-14T09:35:20.881Z,55.81
2023-05-14T09:37:53.758Z,55.96
2023-05-14T09:40:24.167Z,56.93
2023-05-14T09:42:52.702Z,56.67
2023-05-14T09:45:20.561Z,56.17
2023-05-14T09:47:48.434Z,56.26
2023-05-14T09:50:16.328Z,55.08
2023-05-14T09:52:44.333Z,55.31
2023-05-14T09:55:12.187Z,54.74
2023-05-14T09:57:40.768Z,54.63
2023-05-14T10:00:09.431Z,54.01
2023-05-14T10:02:38.677Z,53.53
2023-05-14T10:05:07.970Z,53.11
2023-05-14T10:07:48.640Z,53.42
2023-05-14T10:10:19.876Z,53.61
2023-05-14T10:13:13.462Z,53.99
2023-05-14T10:15:52.119Z,55.17
2023-05-14T10:18:24.333Z,56.52
2023-05-14T10:21:02.768Z,56.80
2023-05-14T10:23:31.117Z,57.05
2023-05-14T10:25:59.979Z,57.27
2023-05-14T10:28:28.618Z,57.37
2023-05-14T10:30:56.773Z,57.54
2023-05-14T10:33:24.774Z,57.21
2023-05-14T10:35:55.935Z,56.67
2023-05-14T10:38:27.718Z,56.42
2023-05-14T10:41:02.704Z,58.14
2023-05-14T10:43:36.465Z,58.91
2023-05-14T10:46:05.257Z,59.98
2023-05-14T10:48:34.099Z,61.40
2023-05-14T10:51:03.240Z,61.53
2023-05-14T10:53:39.875Z,61.58
2023-05-14T10:56:14.504Z,62.05
2023-05-14T10:58:44.470Z,62.87
2023-05-14T11:01:13.934Z,63.09
2023-05-14T11:03:47.175Z,63.44
2023-05-14T11:06:16.395Z,63.61
2023-05-14T11:08:46.265Z,63.92
2023-05-14T11:11:14.861Z,64.06
2023-05-14T11:13:42.884Z,64.78
2023-05-14T11:16:22.740Z,65.11
2023-05-14T11:19:04.439Z,65.61
2023-05-14T11:21:35.136Z,66.68
2023-05-14T11:24:05.098Z,68.44
2023-05-14T11:26:34.513Z,68.59
2023-05-14T11:29:02.701Z,68.92
2023-05-14T11:31:30.882Z,68.88
2023-05-14T11:33:58.980Z,69.37
2023-05-14T11:36:28.252Z,69.20
2023-05-14T11:38:56.161Z,68.51
2023-05-14T11:41:24.481Z,68.47
2023-05-14T11:43:52.382Z,68.71
2023-05-14T11:46:20.615Z,69.70
2023-05-14T11:48:48.641Z,70.69
2023-05-14T11:51:16.891Z,71.69
2023-05-14T11:53:46.054Z,71.94
2023-05-14T11:56:14.048Z,71.16
2023-05-14T11:58:48.240Z,70.75
2023-05-14T12:01:16.296Z,70.63
2023-05-14T12:03:44.532Z,71.33
2023-05-14T12:06:12.752Z,72.47
2023-05-14T12:08:40.777Z,70.76
2023-05-14T12:11:09.465Z,70.29
2023-05-14T12:13:37.442Z,70.98
2023-05-14T12:16:05.538Z,71.95
2023-05-14T12:18:33.963Z,73.76
2023-05-14T12:21:03.963Z,73.36
2023-05-14T12:23:32.622Z,74.99
2023-05-14T12:26:06.635Z,75.86
2023-05-14T12:28:38.402Z,77.10
2023-05-14T12:31:06.754Z,76.24
2023-05-14T12:33:35.002Z,76.04
2023-05-14T12:36:13.960Z,77.09
2023-05-14T12:39:00.692Z,77.25
2023-05-14T12:41:28.679Z,77.35
2023-05-14T12:43:57.356Z,77.38
2023-05-14T12:46:27.424Z,78.04
2023-05-14T12:48:56.234Z,77.05
2023-05-14T12:51:24.158Z,76.22
2023-05-14T12:53:54.151Z,75.62
2023-05-14T12:56:27.719Z,75.26
2023-05-14T12:58:56.482Z,74.50
2023-05-14T13:01:24.986Z,74.07
2023-05-14T13:03:52.989Z,73.44
2023-05-14T13:06:20.906Z,72.51
2023-05-14T13:08:48.887Z,72.60
2023-05-14T13:11:16.808Z,73.03
2023-05-14T13:13:44.763Z,73.30
2023-05-14T13:16:16.998Z,72.87
2023-05-14T13:18:45.302Z,72.84
2023-05-14T13:21:13.285Z,72.11
2023-05-14T13:23:41.119Z,71.76
2023-05-14T13:26:09.805Z,71.63
2023-05-14T13:28:37.850Z,71.85
2023-05-14T13:31:14.436Z,71.60
2023-05-14T13:33:45.279Z,70.71
2023-05-14T13:36:15.009Z,69.79
2023-05-14T13:38:43.139Z,70.11
2023-05-14T13:41:10.907Z,70.57
2023-05-14T13:43:39.027Z,70.26
2023-05-14T13:46:07.096Z,70.00
2023-05-14T13:48:37.139Z,68.90
2023-05-14T13:51:05.017Z,68.49
2023-05-14T13:53:32.900Z,68.31
2023-05-14T13:56:01.909Z,68.57
2023-05-14T13:58:30.315Z,68.33
2023-05-14T14:00:58.179Z,68.48
2023-05-14T14:03:26.114Z,68.14
2023-05-14T14:05:54.153Z,68.39
2023-05-14T14:08:24.103Z,68.31
2023-05-14T14:10:54.668Z,68.19
2023-05-14T14:13:23.030Z,68.55
2023-05-14T14:15:51.512Z,68.64
2023-05-14T14:18:19.766Z,68.22
2023-05-14T14:20:47.981Z,68.03
2023-05-14T14:23:16.562Z,68.46
2023-05-14T14:25:44.496Z,68.79
2023-05-14T14:28:12.419Z,68.59
2023-05-14T14:30:40.453Z,68.77
2023-05-14T14:33:08.366Z,68.94
2023-05-14T14:35:37.466Z,69.06
2023-05-14T14:38:05.798Z,69.24
2023-05-14T14:40:34.564Z,69.33
2023-05-14T14:43:02.435Z,69.34
2023-05-14T14:45:30.500Z,69.40
2023-05-14T14:48:37.486Z,69.53
2023-05-14T14:51:09.439Z,70.43
2023-05-14T14:53:37.349Z,70.70
2023-05-14T14:56:05.986Z,70.13
2023-05-14T14:58:34.062Z,70.34
2023-05-14T15:01:02.027Z,70.44
2023-05-14T15:03:30.058Z,70.57
2023-05-14T15:05:58.304Z,70.43
2023-05-14T15:08:27.896Z,70.36
2023-05-14T15:10:56.560Z,70.58
2023-05-14T15:13:25.144Z,70.80
2023-05-14T15:15:53.132Z,70.98
2023-05-14T15:18:21.161Z,71.62
2023-05-14T15:20:49.454Z,72.57
2023-05-14T15:23:17.288Z,74.05
2023-05-14T15:25:45.420Z,74.78
2023-05-14T15:28:13.323Z,74.81
2023-05-14T15:30:41.415Z,75.23
2023-05-14T15:33:09.572Z,76.13
2023-05-14T15:35:37.672Z,76.44
2023-05-14T15:38:07.141Z,79.06
2023-05-14T15:40:35.356Z,80.48
2023-05-14T15:43:03.705Z,80.54
2023-05-14T15:45:31.952Z,83.50
2023-05-14T15:47:59.892Z,82.83
2023-05-14T15:50:28.117Z,82.30
2023-05-14T15:52:56.270Z,82.79
2023-05-14T15:55:24.139Z,83.17
2023-05-14T15:57:52.103Z,83.60
2023-05-14T16:00:20.379Z,83.89
2023-05-14T16:02:48.279Z,84.22
2023-05-14T16:05:16.395Z,84.12
2023-05-14T16:07:44.330Z,85.11
2023-05-14T16:10:12.373Z,85.73
2023-05-14T16:12:40.375Z,85.06
2023-05-14T16:15:08.763Z,85.19
2023-05-14T16:17:36.792Z,85.23
2023-05-14T16:20:05.441Z,85.59
2023-05-14T16:22:34.873Z,86.38
2023-05-14T16:25:04.743Z,86.91
2023-05-14T16:27:32.985Z,86.61
2023-05-14T16:30:00.936Z,87.68
2023-05-14T16:32:29.107Z,90.24
2023-05-14T16:34:57.104Z,90.23
2023-05-14T16:37:29.418Z,90.43
2023-05-14T16:39:57.393Z,89.79
2023-05-14T16:42:26.358Z,89.78
2023-05-14T16:44:54.316Z,90.57
2023-05-14T16:47:22.363Z,90.25
2023-05-14T16:49:50.525Z,90.43
2023-05-14T16:52:18.689Z,91.47
2023-05-14T16:54:46.724Z,91.40
2023-05-14T16:57:14.676Z,91.01
2023-05-14T16:59:42.702Z,91.66
2023-05-14T17:02:13.566Z,91.58
2023-05-14T17:04:43.470Z,91.81
2023-05-14T17:07:11.817Z,92.66
2023-05-14T17:09:39.728Z,93.12
2023-05-14T17:12:07.931Z,93.30
2023-05-14T17:14:35.951Z,93.16
2023-05-14T17:17:03.998Z,93.04
2023-05-14T17:19:31.949Z,92.78
2023-05-14T17:21:59.974Z,92.58
2023-05-14T17:24:27.887Z,92.46
2023-05-14T17:26:57.295Z,92.71
2023-05-14T17:29:25.215Z,92.35
2023-05-14T17:31:53.341Z,92.38
2023-05-14T17:34:21.393Z,92.60
2023-05-14T17:36:49.611Z,92.49
2023-05-14T17:39:17.427Z,92.57
2023-05-14T17:41:45.375Z,92.99
2023-05-14T17:44:13.379Z,93.08
2023-05-14T17:46:42.449Z,92.74
2023-05-14T17:49:11.851Z,92.48
2023-05-14T17:51:39.743Z,92.76
2023-05-14T17:54:07.678Z,93.29
2023-05-14T17:56:35.618Z,93.51
2023-05-14T17:59:03.762Z,92.85
2023-05-14T18:01:31.872Z,92.40
2023-05-14T18:03:59.923Z,92.37
2023-05-14T18:06:27.789Z,92.00
2023-05-14T18:08:55.785Z,92.21
2023-05-14T18:11:23.745Z,92.27
2023-05-14T18:13:51.779Z,92.25
2023-05-14T18:16:19.607Z,92.37
2023-05-14T18:18:47.906Z,92.37
2023-05-14T18:21:16.052Z,92.30
2023-05-14T18:23:43.960Z,92.19
2023-05-14T18:26:11.846Z,92.10
2023-05-14T18:28:39.995Z,91.83
2023-05-14T18:31:08.017Z,91.85
2023-05-14T18:33:36.146Z,92.03
2023-05-14T18:36:04.350Z,92.20
2023-05-14T18:38:32.978Z,92.48
2023-05-14T18:41:05.388Z,92.89
2023-05-14T18:43:33.190Z,93.11
2023-05-14T18:46:01.106Z,93.36
2023-05-14T18:48:30.558Z,93.88
2023-05-14T18:50:58.785Z,94.57
2023-05-14T18:53:30.135Z,95.28
2023-05-14T18:56:00.193Z,95.75
2023-05-14T18:58:29.329Z,95.21
2023-05-14T19:01:06.470Z,95.35
2023-05-14T19:03:34.987Z,95.65
2023-05-14T19:06:03.232Z,95.86
2023-05-14T19:08:31.230Z,95.85
2023-05-14T19:10:59.205Z,96.26
2023-05-14T19:13:28.709Z,96.06
2023-05-14T19:15:56.787Z,95.87
2023-05-14T19:18:25.249Z,95.87
2023-05-14T19:20:54.931Z,96.22
2023-05-14T19:23:25.362Z,95.86
2023-05-14T19:25:54.680Z,95.56
2023-05-14T19:28:26.989Z,95.60
2023-05-14T19:30:54.793Z,96.01
2023-05-14T19:33:22.756Z,95.46
2023-05-14T19:35:51.091Z,95.22
2023-05-14T19:38:44.199Z,94.92
2023-05-14T19:41:12.667Z,94.82
2023-05-14T19:43:40.654Z,94.73
2023-05-14T19:46:08.623Z,94.55
2023-05-14T19:48:36.684Z,94.32
2023-05-14T19:51:04.567Z,94.01
2023-05-14T19:53:32.656Z,93.70
2023-05-14T19:56:02.091Z,93.57
2023-05-14T19:58:30.027Z,93.35
2023-05-14T20:00:58.664Z,93.17
2023-05-14T20:03:26.882Z,92.96
2023-05-14T20:05:55.833Z,92.86
2023-05-14T20:08:24.877Z,92.80
2023-05-14T20:10:52.826Z,92.62
2023-05-14T20:13:21.867Z,92.26
2023-05-14T20:15:51.361Z,92.31
2023-05-14T20:18:19.291Z,92.13
2023-05-14T20:20:49.095Z,92.11
2023-05-14T20:23:17.059Z,92.18
2023-05-14T20:25:44.883Z,92.35
2023-05-14T20:28:12.787Z,92.03
2023-05-14T20:30:41.182Z,91.95
2023-05-14T20:33:09.253Z,92.01
2023-05-14T20:35:37.497Z,91.99
2023-05-14T20:38:05.468Z,92.01
2023-05-14T20:40:33.312Z,91.81
2023-05-14T20:43:01.893Z,91.68
2023-05-14T20:45:30.346Z,91.79
2023-05-14T20:47:58.466Z,91.76
2023-05-14T20:50:28.018Z,91.51
2023-05-14T20:52:55.900Z,91.18
2023-05-14T20:55:24.274Z,90.88
2023-05-14T20:57:52.301Z,90.67
2023-05-14T21:00:20.732Z,90.61
2023-05-14T21:02:52.536Z,90.79
2023-05-14T21:05:20.957Z,90.73
2023-05-14T21:07:48.854Z,90.70
2023-05-14T21:10:19.177Z,90.58
2023-05-14T21:12:47.119Z,90.69
2023-05-14T21:15:15.322Z,90.68
2023-05-14T21:17:43.188Z,90.61
2023-05-14T21:20:15.537Z,90.67
2023-05-14T21:22:43.449Z,90.49
2023-05-14T21:25:11.418Z,90.42
2023-05-14T21:27:39.542Z,90.37
2023-05-14T21:30:09.941Z,90.36
2023-05-14T21:32:37.994Z,90.31
2023-05-14T21:35:06.263Z,90.21
2023-05-14T21:37:34.297Z,90.15
2023-05-14T21:40:02.129Z,89.99
2023-05-14T21:42:30.103Z,89.73
2023-05-14T21:44:57.958Z,89.59
2023-05-14T21:47:27.018Z,89.37
2023-05-14T21:49:55.222Z,89.27
2023-05-14T21:52:22.979Z,89.28
2023-05-14T21:54:50.768Z,89.22
2023-05-14T21:57:18.762Z,88.88
2023-05-14T21:59:46.601Z,88.35
2023-05-14T22:02:14.675Z,87.87
2023-05-14T22:04:42.569Z,87.58
2023-05-14T22:07:10.961Z,87.24
2023-05-14T22:09:38.789Z,87.31
2023-05-14T22:12:07.265Z,87.17
2023-05-14T22:14:35.057Z,86.85
2023-05-14T22:17:03.041Z,86.47
2023-05-14T22:19:31.429Z,86.33
2023-05-14T22:21:59.311Z,86.07
2023-05-14T22:24:27.292Z,85.81
2023-05-14T22:26:55.170Z,85.26
2023-05-14T22:29:23.082Z,84.83
2023-05-14T22:31:51.104Z,84.47
2023-05-14T22:34:19.452Z,84.26
2023-05-14T22:36:47.494Z,83.34
2023-05-14T22:39:15.587Z,83.26
2023-05-14T22:41:43.619Z,83.22
2023-05-14T22:44:11.432Z,82.30
2023-05-14T22:46:39.431Z,82.17
2023-05-14T22:49:07.287Z,82.07
2023-05-14T22:51:35.226Z,81.86
2023-05-14T22:54:03.225Z,81.99
2023-05-14T22:56:31.530Z,81.71
2023-05-14T22:59:02.261Z,81.24
2023-05-14T23:01:32.293Z,80.80
2023-05-14T23:04:00.240Z,80.50
2023-05-14T23:06:28.192Z,80.20
2023-05-14T23:08:56.282Z,79.98
2023-05-14T23:11:26.656Z,80.02
2023-05-14T23:13:54.553Z,80.27
2023-05-14T23:16:22.376Z,79.86
2023-05-14T23:18:50.700Z,79.91
2023-05-14T23:21:18.982Z,78.79
2023-05-14T23:23:47.120Z,78.04
2023-05-14T23:26:15.159Z,78.07
2023-05-14T23:28:42.995Z,77.98
2023-05-14T23:31:10.924Z,77.57
2023-05-14T23:33:39.871Z,77.56
2023-05-14T23:36:08.366Z,76.99
2023-05-14T23:38:36.668Z,76.70
2023-05-14T23:41:04.728Z,76.75
2023-05-14T23:43:33.882Z,76.22
2023-05-14T23:46:01.904Z,76.73
2023-05-14T23:48:29.819Z,76.33
2023-05-14T23:50:57.892Z,76.39
2023-05-14T23:53:25.888Z,75.89
2023-05-14T23:55:53.760Z,76.12
2023-05-14T23:58:21.796Z,75.88
